Time;durP1;ratioP1;P1;durP2;ratioP2;P2;SDS_P1;SDS_P2;PMS_P1;PMS_P2;Temp;Humidity;BMP_temperature;BMP_pressure;BME280_temperature;BME280_humidity;BME280_pressure;Samples;Min_cycle;Max_cycle;Signal;HPM_P1;HPM_P2
2021/05/08 00:01:13;;;;;;;22.80;10.32;;;13.50;96.70;;;;;;5054958;28;20028;-87
2021/05/08 00:03:39;;;;;;;20.75;10.30;;;13.50;96.70;;;;;;5055211;28;20066;-85
2021/05/08 00:06:08;;;;;;;16.95;9.75;;;13.50;96.70;;;;;;5056039;28;20348;-86
2021/05/08 00:08:35;;;;;;;14.15;9.52;;;13.50;96.80;;;;;;5055240;28;20025;-88
2021/05/08 00:11:03;;;;;;;13.77;8.60;;;13.50;96.60;;;;;;5056776;28;20470;-86
2021/05/08 00:13:28;;;;;;;9.13;7.32;;;13.50;96.40;;;;;;5056283;28;20159;-92
2021/05/08 00:15:54;;;;;;;8.32;6.22;;;13.60;96.40;;;;;;5056378;28;20068;-91
2021/05/08 00:18:21;;;;;;;7.15;5.80;;;13.60;96.30;;;;;;5038598;28;20025;-93
2021/05/08 00:20:47;;;;;;;7.15;6.00;;;13.60;96.20;;;;;;5056617;28;20052;-86
2021/05/08 00:23:12;;;;;;;6.97;5.55;;;13.60;96.10;;;;;;5055118;28;20419;-87
2021/05/08 00:25:38;;;;;;;6.07;5.47;;;13.60;96.10;;;;;;5056021;28;20048;-80
2021/05/08 00:28:04;;;;;;;6.50;5.60;;;13.60;96.00;;;;;;5055755;28;20040;-86
2021/05/08 00:30:32;;;;;;;7.22;5.93;;;13.60;96.00;;;;;;5055479;28;20029;-86
2021/05/08 00:32:58;;;;;;;8.38;5.20;;;13.60;95.90;;;;;;5056271;28;20096;-87
2021/05/08 00:35:24;;;;;;;9.65;6.00;;;13.60;95.90;;;;;;5055963;28;20064;-85
2021/05/08 00:37:50;;;;;;;6.55;5.75;;;13.60;95.90;;;;;;5055821;28;20096;-86
2021/05/08 00:40:17;;;;;;;6.45;5.07;;;13.60;95.90;;;;;;5054292;28;20022;-86
2021/05/08 00:42:42;;;;;;;5.72;5.22;;;13.60;95.90;;;;;;5055601;28;20040;-87
2021/05/08 00:45:09;;;;;;;6.72;5.60;;;13.60;95.80;;;;;;5037992;28;20026;-86
2021/05/08 00:47:45;;;;;;;8.40;5.13;;;13.60;95.90;;;;;;5054678;28;20029;-85
2021/05/08 00:50:12;;;;;;;7.10;5.40;;;13.50;95.90;;;;;;5055611;28;20017;-85
2021/05/08 00:52:38;;;;;;;8.45;6.50;;;13.50;95.90;;;;;;5054427;28;20060;-83
2021/05/08 00:55:06;;;;;;;7.63;5.82;;;13.50;96.00;;;;;;5054212;28;20392;-84
2021/05/08 00:57:32;;;;;;;6.88;5.85;;;13.50;96.10;;;;;;5053948;28;20031;-84
2021/05/08 00:59:58;;;;;;;6.82;6.00;;;13.50;95.90;;;;;;5037852;28;20029;-85
2021/05/08 01:02:25;;;;;;;11.10;7.68;;;13.50;96.00;;;;;;5054034;28;20025;-84
2021/05/08 01:04:51;;;;;;;10.43;6.88;;;13.50;96.00;;;;;;5037193;28;20037;-85
2021/05/08 01:07:21;;;;;;;10.07;6.78;;;13.50;96.00;;;;;;5054917;28;20059;-85
2021/05/08 01:09:48;;;;;;;10.50;7.22;;;13.50;95.90;;;;;;5055184;28;20035;-84
2021/05/08 01:12:13;;;;;;;10.43;7.35;;;13.50;95.90;;;;;;5053858;28;20483;-85
2021/05/08 01:14:39;;;;;;;8.60;6.35;;;13.50;95.90;;;;;;5037165;28;20033;-84
2021/05/08 01:17:07;;;;;;;9.52;6.07;;;13.50;95.80;;;;;;5053610;28;20025;-84
2021/05/08 01:19:34;;;;;;;10.32;7.35;;;13.60;95.80;;;;;;5054990;28;20060;-84
2021/05/08 01:22:02;;;;;;;12.27;8.02;;;13.60;95.80;;;;;;5053639;28;20108;-83
2021/05/08 01:24:28;;;;;;;11.38;7.30;;;13.50;95.70;;;;;;5054891;28;20105;-83
2021/05/08 01:26:54;;;;;;;8.88;5.88;;;13.50;95.60;;;;;;5054535;28;20056;-84
2021/05/08 01:29:21;;;;;;;6.38;5.28;;;13.60;95.50;;;;;;5053616;28;20029;-92
2021/05/08 01:31:47;;;;;;;8.40;5.30;;;13.50;95.50;;;;;;5053196;28;20025;-85
2021/05/08 01:34:13;;;;;;;6.45;5.13;;;13.50;95.60;;;;;;5053369;28;20106;-83
2021/05/08 01:36:38;;;;;;;7.20;5.60;;;13.50;95.60;;;;;;5032177;28;20041;-84
2021/05/08 01:39:05;;;;;;;11.35;6.32;;;13.50;95.70;;;;;;5050289;28;20033;-83
2021/05/08 01:41:32;;;;;;;7.80;5.90;;;13.50;95.80;;;;;;5034505;28;20028;-83
2021/05/08 01:43:58;;;;;;;8.27;6.00;;;13.50;95.70;;;;;;5033296;28;20164;-83
2021/05/08 01:46:26;;;;;;;7.35;6.03;;;13.50;95.70;;;;;;5049577;28;20108;-82
2021/05/08 01:48:54;;;;;;;7.32;6.35;;;13.50;95.80;;;;;;5050088;28;20116;-83
2021/05/08 01:51:19;;;;;;;9.73;6.55;;;13.50;95.80;;;;;;5033240;28;20088;-83
2021/05/08 01:53:47;;;;;;;7.82;6.22;;;13.50;95.70;;;;;;5066549;28;20422;-82
2021/05/08 01:56:13;;;;;;;8.85;6.32;;;13.50;95.70;;;;;;5034187;28;20531;-86
2021/05/08 01:58:38;;;;;;;14.98;9.68;;;13.50;95.60;;;;;;5033955;28;20116;-82
2021/05/08 02:01:04;;;;;;;24.88;14.77;;;13.50;95.60;;;;;;5049707;28;20064;-82
2021/05/08 02:03:30;;;;;;;26.23;13.43;;;13.50;95.60;;;;;;5049576;28;20029;-82
2021/05/08 02:05:56;;;;;;;18.48;11.63;;;13.50;95.60;;;;;;5044555;28;20052;-82
2021/05/08 02:08:23;;;;;;;14.23;10.07;;;13.60;95.70;;;;;;5053962;28;20021;-82
2021/05/08 02:10:48;;;;;;;12.85;8.63;;;13.50;95.70;;;;;;5052631;28;20028;-83
2021/05/08 02:13:17;;;;;;;14.40;8.20;;;13.60;95.60;;;;;;5052549;28;20029;-83
2021/05/08 02:15:43;;;;;;;10.07;6.65;;;13.50;95.60;;;;;;5052607;28;20471;-84
2021/05/08 02:18:09;;;;;;;11.00;6.95;;;13.60;95.60;;;;;;5052908;28;20066;-83
2021/05/08 02:20:38;;;;;;;8.30;6.30;;;13.60;95.60;;;;;;5052424;28;20081;-82
2021/05/08 02:23:07;;;;;;;9.80;6.90;;;13.50;95.60;;;;;;5052486;28;20016;-82
2021/05/08 02:25:33;;;;;;;7.22;5.93;;;13.60;95.60;;;;;;5052304;28;20025;-82
2021/05/08 02:27:59;;;;;;;7.47;5.85;;;13.60;95.50;;;;;;5052778;28;20032;-82
2021/05/08 02:30:33;;;;;;;9.38;5.95;;;13.60;95.60;;;;;;5052494;28;20534;-84
2021/05/08 02:33:01;;;;;;;6.45;5.25;;;13.60;95.50;;;;;;5034061;28;20025;-82
2021/05/08 02:35:27;;;;;;;7.10;6.10;;;13.70;95.50;;;;;;5015849;28;20495;-82
2021/05/08 02:37:54;;;;;;;8.13;5.85;;;13.70;95.50;;;;;;5033372;28;20030;-82
2021/05/08 02:40:35;;;;;;;6.85;5.65;;;13.70;95.50;;;;;;5032328;28;20472;-80
2021/05/08 02:43:03;;;;;;;11.15;6.45;;;13.70;95.50;;;;;;5030014;28;20045;-80
2021/05/08 02:45:29;;;;;;;8.65;6.18;;;13.70;95.50;;;;;;5048249;28;20461;-79
2021/05/08 02:47:54;;;;;;;8.30;5.95;;;13.70;95.60;;;;;;5051802;28;20112;-79
2021/05/08 02:50:21;;;;;;;7.72;6.43;;;13.60;95.50;;;;;;5051738;28;20079;-80
2021/05/08 02:52:47;;;;;;;9.63;6.00;;;13.60;95.50;;;;;;5051725;28;20029;-80
2021/05/08 02:55:14;;;;;;;8.00;5.78;;;13.60;95.50;;;;;;5052046;28;20025;-82
2021/05/08 02:57:40;;;;;;;8.10;5.50;;;13.60;95.50;;;;;;5051902;28;20117;-82
2021/05/08 03:00:10;;;;;;;9.23;5.80;;;13.70;95.50;;;;;;5053001;28;20049;-81
2021/05/08 03:02:36;;;;;;;10.40;6.68;;;13.70;95.50;;;;;;5051155;28;20025;-81
2021/05/08 03:05:03;;;;;;;8.25;6.35;;;13.70;95.50;;;;;;5053143;28;20098;-83
2021/05/08 03:07:29;;;;;;;9.23;6.53;;;13.70;95.50;;;;;;5052236;28;20064;-82
2021/05/08 03:09:55;;;;;;;8.95;6.53;;;13.70;95.50;;;;;;5052314;28;20099;-82
2021/05/08 03:12:21;;;;;;;13.50;6.97;;;13.70;95.50;;;;;;5052954;28;20475;-84
2021/05/08 03:14:47;;;;;;;8.40;6.50;;;13.70;95.50;;;;;;5051828;28;20493;-83
2021/05/08 03:17:14;;;;;;;10.07;6.68;;;13.70;95.50;;;;;;5035161;28;20479;-83
2021/05/08 03:19:40;;;;;;;9.68;6.35;;;13.70;95.60;;;;;;5035091;28;20025;-83
2021/05/08 03:22:05;;;;;;;8.57;6.05;;;13.70;95.60;;;;;;5053009;28;20025;-83
2021/05/08 03:24:33;;;;;;;8.45;6.18;;;13.70;95.50;;;;;;5053085;28;20460;-83
2021/05/08 03:27:00;;;;;;;8.73;6.00;;;13.70;95.60;;;;;;5051695;28;20025;-83
2021/05/08 03:29:26;;;;;;;10.52;6.28;;;13.70;95.60;;;;;;5052989;28;20553;-83
2021/05/08 03:31:51;;;;;;;10.38;6.78;;;13.80;95.60;;;;;;5035184;28;20068;-83
2021/05/08 03:34:17;;;;;;;12.18;7.07;;;13.80;95.60;;;;;;5051368;28;20036;-83
2021/05/08 03:36:43;;;;;;;13.82;7.70;;;13.80;95.60;;;;;;5051448;28;20064;-83
2021/05/08 03:39:08;;;;;;;10.60;7.68;;;13.80;95.60;;;;;;5051352;28;20032;-84
2021/05/08 03:41:34;;;;;;;10.45;7.60;;;13.80;95.60;;;;;;5052621;28;20028;-84
2021/05/08 03:44:00;;;;;;;14.63;8.52;;;13.80;95.60;;;;;;5051657;28;20029;-84
2021/05/08 03:46:26;;;;;;;10.60;7.80;;;13.90;95.70;;;;;;5051642;28;20037;-84
2021/05/08 03:48:51;;;;;;;10.82;7.82;;;13.90;95.60;;;;;;5052645;28;20056;-85
2021/05/08 03:51:22;;;;;;;11.38;7.07;;;13.90;95.60;;;;;;5051584;28;20025;-85
2021/05/08 03:53:47;;;;;;;;;;;13.90;95.50;;;;;;5051937;28;20041;-85
2021/05/08 03:56:13;;;;;;;13.25;7.28;;;13.90;95.50;;;;;;5051342;28;20325;-85
2021/05/08 03:58:39;;;;;;;13.27;7.72;;;13.90;95.50;;;;;;5051485;28;20099;-85
2021/05/08 04:01:04;;;;;;;10.45;7.90;;;13.90;95.50;;;;;;5055714;28;20029;-85
2021/05/08 04:03:30;;;;;;;14.63;8.45;;;13.90;95.50;;;;;;5056064;28;20033;-85
2021/05/08 04:05:56;;;;;;;11.63;8.18;;;13.90;95.60;;;;;;5055059;28;20045;-86
2021/05/08 04:08:22;;;;;;;9.95;7.45;;;13.90;95.60;;;;;;5056017;28;20383;-86
2021/05/08 04:10:48;;;;;;;11.82;8.05;;;13.90;95.50;;;;;;5038066;28;20170;-85
2021/05/08 04:13:15;;;;;;;9.73;6.60;;;13.90;95.50;;;;;;5056191;28;20064;-84
2021/05/08 04:15:41;;;;;;;9.23;6.65;;;13.90;95.50;;;;;;5056117;28;20459;-85
2021/05/08 04:18:09;;;;;;;10.63;7.30;;;13.80;95.50;;;;;;5056117;28;20017;-83
2021/05/08 04:20:34;;;;;;;8.43;6.40;;;13.80;95.60;;;;;;5054384;28;20170;-82
2021/05/08 04:23:00;;;;;;;12.50;6.88;;;13.80;95.80;;;;;;5054644;28;20423;-82
2021/05/08 04:25:27;;;;;;;9.00;6.40;;;13.70;95.80;;;;;;5054657;28;20021;-83
2021/05/08 04:27:53;;;;;;;9.20;6.47;;;13.70;95.90;;;;;;5055831;28;20021;-85
2021/05/08 04:30:19;;;;;;;10.98;6.95;;;13.70;95.90;;;;;;5054803;28;20033;-85
2021/05/08 04:32:45;;;;;;;10.13;6.93;;;13.70;96.00;;;;;;5056098;28;20036;-92
2021/05/08 04:35:11;;;;;;;10.70;8.18;;;13.60;96.10;;;;;;5055701;28;20056;-88
2021/05/08 04:37:38;;;;;;;10.57;7.45;;;13.60;96.10;;;;;;5056186;28;20028;-92
2021/05/08 04:40:06;;;;;;;10.38;7.60;;;13.50;96.20;;;;;;5055020;28;20029;-91
2021/05/08 04:42:31;;;;;;;11.82;8.27;;;13.50;96.40;;;;;;5055537;28;20104;-90
2021/05/08 04:44:57;;;;;;;10.65;7.47;;;13.50;96.50;;;;;;5055969;28;20100;-90
2021/05/08 04:47:23;;;;;;;9.25;6.40;;;13.40;96.70;;;;;;5054726;28;20081;-92
2021/05/08 04:49:51;;;;;;;11.38;7.60;;;13.40;96.70;;;;;;5055715;28;20108;-92
2021/05/08 04:52:17;;;;;;;11.70;7.55;;;13.30;96.70;;;;;;5055723;28;20036;-90
2021/05/08 04:54:43;;;;;;;11.63;7.93;;;13.30;96.80;;;;;;5055767;28;20028;-92
2021/05/08 04:57:08;;;;;;;11.63;8.32;;;13.20;97.00;;;;;;5054225;28;20029;-88
2021/05/08 04:59:34;;;;;;;10.52;8.35;;;13.10;97.20;;;;;;5054047;28;20150;-89
2021/05/08 05:02:01;;;;;;;12.98;9.93;;;13.10;97.40;;;;;;5055499;28;20013;-86
2021/05/08 05:04:27;;;;;;;12.98;9.27;;;13.10;97.60;;;;;;5055453;28;20703;-86
2021/05/08 05:06:54;;;;;;;13.02;9.70;;;13.10;97.60;;;;;;5053546;28;20029;-86
2021/05/08 05:09:19;;;;;;;11.63;8.85;;;13.10;97.80;;;;;;5053530;28;20078;-91
2021/05/08 05:11:45;;;;;;;11.27;9.18;;;13.10;97.90;;;;;;5055339;28;20025;-87
2021/05/08 05:14:11;;;;;;;13.57;9.02;;;13.10;97.80;;;;;;5053674;28;20036;-88
2021/05/08 05:16:36;;;;;;;10.93;8.73;;;13.00;97.90;;;;;;5054981;28;20029;-91
2021/05/08 05:19:04;;;;;;;13.07;9.25;;;13.00;98.00;;;;;;5053854;28;20048;-93
2021/05/08 05:21:30;;;;;;;14.63;9.88;;;13.00;98.10;;;;;;5054362;28;20044;-89
2021/05/08 05:23:56;;;;;;;13.27;9.77;;;13.00;98.10;;;;;;5054996;28;20096;-88
2021/05/08 05:26:22;;;;;;;12.32;9.60;;;13.00;98.30;;;;;;5055048;28;20483;-88
2021/05/08 05:28:47;;;;;;;15.30;9.32;;;13.00;98.40;;;;;;5055439;28;20382;-94
2021/05/08 05:31:16;;;;;;;11.23;8.82;;;13.00;98.30;;;;;;5054118;28;20502;-90
2021/05/08 05:33:42;;;;;;;13.07;9.85;;;13.00;98.40;;;;;;5054868;28;20036;-91
2021/05/08 05:36:08;;;;;;;14.20;9.40;;;13.00;98.40;;;;;;5054705;28;20406;-90
2021/05/08 05:38:34;;;;;;;13.95;9.75;;;13.00;98.40;;;;;;5054631;28;20021;-90
2021/05/08 05:40:59;;;;;;;13.25;10.50;;;12.90;98.50;;;;;;5053454;28;20120;-89
2021/05/08 05:43:27;;;;;;;13.98;9.93;;;12.90;98.50;;;;;;5054528;28;20037;-85
2021/05/08 05:45:52;;;;;;;12.77;9.75;;;13.00;98.50;;;;;;5053247;28;20029;-79
2021/05/08 05:48:20;;;;;;;14.65;11.35;;;12.90;98.50;;;;;;5054520;28;20027;-86
2021/05/08 05:50:46;;;;;;;30.40;18.63;;;13.00;98.50;;;;;;5054136;28;20028;-77
2021/05/08 05:53:12;;;;;;;19.50;13.77;;;12.90;98.60;;;;;;5054161;28;20025;-83
2021/05/08 05:55:38;;;;;;;18.95;13.98;;;12.80;98.80;;;;;;5053176;28;20585;-88
2021/05/08 05:58:04;;;;;;;16.27;12.55;;;12.80;99.00;;;;;;5054266;28;20033;-83
2021/05/08 06:00:30;;;;;;;12.85;10.02;;;12.80;99.20;;;;;;5053375;28;20032;-84
2021/05/08 06:02:56;;;;;;;11.85;9.48;;;12.70;99.30;;;;;;5053812;28;20055;-83
2021/05/08 06:05:22;;;;;;;13.75;9.57;;;12.70;99.40;;;;;;5053433;28;20052;-86
2021/05/08 06:07:49;;;;;;;11.88;9.60;;;12.70;99.50;;;;;;5053329;28;20051;-88
2021/05/08 06:10:16;;;;;;;41.70;29.73;;;12.60;99.70;;;;;;5053444;28;20025;-86
2021/05/08 06:12:42;;;;;;;22.98;15.50;;;12.70;99.70;;;;;;5054049;28;20025;-79
2021/05/08 06:15:10;;;;;;;30.05;22.33;;;12.70;99.90;;;;;;5052930;28;20061;-90
2021/05/08 06:17:36;;;;;;;22.05;13.27;;;12.70;99.90;;;;;;5052704;28;20122;-88
2021/05/08 06:20:02;;;;;;;13.15;8.57;;;12.70;99.90;;;;;;5054179;28;20422;-80
2021/05/08 06:22:29;;;;;;;10.68;7.60;;;12.80;99.90;;;;;;5053306;28;20056;-78
2021/05/08 06:24:55;;;;;;;9.32;6.85;;;12.80;99.90;;;;;;5053537;28;20044;-86
2021/05/08 06:27:22;;;;;;;9.90;6.70;;;12.70;99.90;;;;;;5052444;28;20032;-81
2021/05/08 06:29:48;;;;;;;9.45;6.97;;;12.80;99.90;;;;;;5052667;28;20021;-86
2021/05/08 06:32:14;;;;;;;11.57;8.00;;;12.80;99.90;;;;;;5053007;28;20107;-89
2021/05/08 06:34:39;;;;;;;9.40;7.43;;;12.80;99.90;;;;;;5052048;28;20485;-82
2021/05/08 06:37:05;;;;;;;9.05;7.88;;;12.80;99.90;;;;;;5052590;28;20032;-82
2021/05/08 06:39:31;;;;;;;10.60;7.43;;;12.80;99.90;;;;;;5051782;28;20035;-78
2021/05/08 06:41:57;;;;;;;10.60;7.40;;;12.80;99.90;;;;;;5052654;28;20033;-82
2021/05/08 06:44:26;;;;;;;8.35;7.25;;;12.80;99.90;;;;;;5051306;28;20025;-80
2021/05/08 06:46:55;;;;;;;8.73;6.28;;;12.80;99.90;;;;;;5053033;28;20036;-76
2021/05/08 06:49:21;;;;;;;8.97;7.50;;;12.90;99.90;;;;;;5052421;28;20033;-79
2021/05/08 06:51:47;;;;;;;9.85;6.70;;;12.90;99.90;;;;;;5052589;28;20422;-78
2021/05/08 06:54:14;;;;;;;8.80;6.97;;;12.90;99.90;;;;;;5052754;28;20051;-77
2021/05/08 06:56:40;;;;;;;9.80;7.05;;;12.90;99.90;;;;;;5051678;28;20100;-78
2021/05/08 06:59:06;;;;;;;9.80;7.32;;;12.90;99.90;;;;;;5051580;28;20459;-78
2021/05/08 07:01:32;;;;;;;10.48;6.97;;;12.90;99.90;;;;;;5051219;28;20029;-76
2021/05/08 07:03:59;;;;;;;10.05;7.80;;;12.90;99.90;;;;;;5051196;28;20022;-79
2021/05/08 07:06:26;;;;;;;9.80;7.50;;;12.90;99.90;;;;;;5052393;28;20060;-77
2021/05/08 07:08:53;;;;;;;8.98;6.75;;;12.90;99.90;;;;;;5050969;28;20040;-76
2021/05/08 07:11:20;;;;;;;9.00;7.75;;;12.90;99.90;;;;;;5052811;28;20060;-76
2021/05/08 07:13:46;;;;;;;11.40;8.85;;;12.80;99.90;;;;;;5052391;28;20033;-77
2021/05/08 07:16:12;;;;;;;10.95;8.65;;;12.80;99.90;;;;;;5052424;28;20352;-77
2021/05/08 07:18:37;;;;;;;14.23;8.55;;;12.80;99.90;;;;;;5052157;28;20036;-75
2021/05/08 07:21:04;;;;;;;10.75;8.32;;;12.80;99.90;;;;;;5052021;28;20420;-75
2021/05/08 07:23:30;;;;;;;12.20;9.13;;;12.80;99.90;;;;;;5050875;28;20067;-76
2021/05/08 07:25:56;;;;;;;18.05;10.48;;;12.80;99.90;;;;;;5051301;28;20025;-76
2021/05/08 07:28:26;;;;;;;14.52;12.05;;;12.70;99.90;;;;;;5052323;28;20028;-78
2021/05/08 07:30:54;;;;;;;20.63;12.63;;;12.70;99.90;;;;;;5051311;28;20070;-80
2021/05/08 07:33:22;;;;;;;15.10;12.35;;;12.70;99.90;;;;;;5052158;28;20033;-77
2021/05/08 07:35:50;;;;;;;19.20;13.23;;;12.70;99.90;;;;;;5054609;28;20443;-78
2021/05/08 07:38:18;;;;;;;16.55;13.23;;;12.70;99.90;;;;;;5056430;28;20025;-77
2021/05/08 07:40:48;;;;;;;19.50;12.73;;;12.70;99.90;;;;;;5056087;28;20044;-79
2021/05/08 07:43:13;;;;;;;15.05;10.98;;;12.70;99.90;;;;;;5056331;28;20023;-77
2021/05/08 07:45:39;;;;;;;14.13;9.35;;;12.70;99.90;;;;;;5055153;28;20029;-77
2021/05/08 07:48:05;;;;;;;17.52;12.38;;;12.60;99.90;;;;;;5056122;28;20029;-79
2021/05/08 07:50:31;;;;;;;22.80;13.18;;;12.60;99.90;;;;;;5056334;28;20029;-81
2021/05/08 07:52:57;;;;;;;19.83;13.27;;;12.60;99.90;;;;;;5056261;28;20025;-80
2021/05/08 07:55:23;;;;;;;13.23;11.07;;;12.60;99.90;;;;;;5056250;28;20104;-78
2021/05/08 07:57:49;;;;;;;17.75;11.63;;;12.60;99.90;;;;;;5054454;28;20056;-78
2021/05/08 08:00:17;;;;;;;15.85;12.27;;;12.60;99.90;;;;;;5054687;28;20053;-80
2021/05/08 08:02:43;;;;;;;16.85;12.13;;;12.60;99.90;;;;;;5055298;28;20029;-78
2021/05/08 08:05:09;;;;;;;17.13;12.77;;;12.60;99.90;;;;;;5055937;28;20532;-78
2021/05/08 08:07:36;;;;;;;16.63;12.95;;;12.60;99.90;;;;;;5055646;28;20439;-77
2021/05/08 08:10:05;;;;;;;19.15;12.35;;;12.60;99.90;;;;;;5055376;28;20461;-81
2021/05/08 08:12:31;;;;;;;24.52;15.75;;;12.60;99.90;;;;;;5055744;28;20033;-79
2021/05/08 08:14:57;;;;;;;30.98;16.13;;;12.60;99.90;;;;;;5054109;28;20021;-78
2021/05/08 08:17:24;;;;;;;19.92;16.00;;;12.60;99.90;;;;;;5054168;28;20074;-80
2021/05/08 08:19:51;;;;;;;22.42;15.70;;;12.60;99.90;;;;;;5054172;28;20021;-77
2021/05/08 08:22:20;;;;;;;24.40;16.05;;;12.70;99.90;;;;;;5054444;28;20475;-79
2021/05/08 08:24:46;;;;;;;30.45;19.30;;;12.70;99.90;;;;;;5055477;28;20036;-81
2021/05/08 08:27:12;;;;;;;25.60;17.75;;;12.80;99.90;;;;;;5054271;28;20029;-79
2021/05/08 08:29:38;;;;;;;24.70;17.83;;;12.80;99.90;;;;;;5054089;28;20021;-81
2021/05/08 08:32:05;;;;;;;20.83;16.23;;;12.90;99.90;;;;;;5055392;28;20033;-81
2021/05/08 08:34:31;;;;;;;27.60;18.55;;;12.90;99.90;;;;;;5053721;28;20116;-83
2021/05/08 08:36:57;;;;;;;27.60;18.98;;;13.00;99.90;;;;;;5055034;28;20128;-77
2021/05/08 08:39:23;;;;;;;28.33;19.02;;;13.10;99.90;;;;;;5055204;28;20029;-81
2021/05/08 08:41:50;;;;;;;24.52;17.38;;;13.10;99.90;;;;;;5055413;28;20025;-78
2021/05/08 08:44:15;;;;;;;26.58;18.90;;;13.10;99.90;;;;;;5055488;28;20021;-81
2021/05/08 08:46:46;;;;;;;26.98;20.88;;;13.20;99.90;;;;;;5055347;28;20546;-84
2021/05/08 08:49:12;;;;;;;;;;;13.20;99.90;;;;;;5054837;28;20025;-85
2021/05/08 08:51:43;;;;;;;39.67;29.17;;;13.20;99.90;;;;;;5055635;28;19905;-89
2021/05/08 08:54:08;;;;;;;;;;;13.20;99.90;;;;;;5054788;28;20076;-83
2021/05/08 08:56:41;;;;;;;25.33;21.17;;;13.30;99.90;;;;;;5055656;28;20359;-92
2021/05/08 08:59:30;;;;;;;27.65;21.67;;;13.50;99.90;;;;;;5055112;28;20463;-88
2021/05/08 09:01:54;;;;;;;24.05;19.08;;;13.50;99.90;;;;;;5055241;28;20033;-91
2021/05/08 09:04:20;;;;;;;22.70;18.92;;;13.60;99.90;;;;;;5055549;28;20105;-88
2021/05/08 09:06:47;;;;;;;21.23;17.60;;;13.70;99.90;;;;;;5055273;28;20025;-90
2021/05/08 09:09:14;;;;;;;20.30;17.65;;;13.70;99.90;;;;;;5054370;28;20032;-84
2021/05/08 09:11:50;;;;;;;21.05;15.57;;;13.60;99.90;;;;;;5053998;28;20037;-77
2021/05/08 09:14:27;;;;;;;17.92;13.82;;;13.50;99.90;;;;;;5054736;28;20029;-79
2021/05/08 09:17:07;;;;;;;13.25;11.90;;;13.40;99.90;;;;;;5053648;28;20052;-79
2021/05/08 09:19:39;;;;;;;12.65;11.35;;;13.30;99.90;;;;;;5054834;28;20017;-79
2021/05/08 09:22:26;;;;;;;12.73;11.15;;;13.20;99.90;;;;;;5054918;28;20091;-79
2021/05/08 09:25:05;;;;;;;15.05;12.88;;;13.20;99.90;;;;;;5053736;28;20079;-82
2021/05/08 09:27:47;;;;;;;14.27;12.63;;;13.10;99.90;;;;;;5053605;28;20107;-78
2021/05/08 09:30:20;;;;;;;13.13;11.40;;;13.20;99.90;;;;;;5054635;28;20059;-79
2021/05/08 09:32:51;;;;;;;11.43;10.23;;;13.10;99.90;;;;;;5054477;28;20418;-84
2021/05/08 09:35:39;;;;;;;13.65;10.77;;;13.10;99.90;;;;;;5054342;28;20081;-80
2021/05/08 09:38:10;;;;;;;11.38;10.18;;;13.00;99.90;;;;;;5054604;28;20475;-80
2021/05/08 09:40:37;;;;;;;12.77;11.48;;;13.00;99.90;;;;;;5053067;28;20063;-86
2021/05/08 09:43:12;;;;;;;10.30;9.30;;;13.00;99.90;;;;;;5055238;28;20059;-82
2021/05/08 09:45:39;;;;;;;11.93;10.70;;;13.00;99.90;;;;;;5054481;28;20024;-83
2021/05/08 09:48:18;;;;;;;10.88;9.77;;;13.00;99.90;;;;;;5054083;28;20474;-79
2021/05/08 09:50:43;;;;;;;14.35;11.50;;;13.00;99.90;;;;;;5053045;28;20059;-88
2021/05/08 09:53:11;;;;;;;13.95;11.82;;;13.10;99.90;;;;;;5069447;28;20025;-83
2021/05/08 09:55:36;;;;;;;12.00;10.68;;;13.00;99.90;;;;;;5053365;28;20021;-84
2021/05/08 09:58:03;;;;;;;11.68;10.52;;;13.10;99.90;;;;;;5052273;28;20025;-92
2021/05/08 10:00:40;;;;;;;10.00;8.80;;;13.10;99.90;;;;;;5054898;28;20021;-86
2021/05/08 10:03:11;;;;;;;10.02;8.65;;;13.00;99.90;;;;;;5053972;28;20033;-80
2021/05/08 10:05:38;;;;;;;9.80;8.60;;;12.90;99.90;;;;;;5052819;28;20421;-81
2021/05/08 10:08:04;;;;;;;9.43;8.43;;;12.70;99.90;;;;;;5053828;28;20031;-79
2021/05/08 10:10:30;;;;;;;9.75;8.75;;;12.50;99.90;;;;;;5052778;28;20033;-83
2021/05/08 10:12:58;;;;;;;10.80;9.27;;;12.30;99.90;;;;;;5053004;28;20124;-81
2021/05/08 10:15:24;;;;;;;12.88;9.68;;;12.20;99.90;;;;;;5052739;28;20021;-81
2021/05/08 10:17:51;;;;;;;11.55;10.35;;;12.10;99.90;;;;;;5053771;28;20025;-79
2021/05/08 10:20:22;;;;;;;13.35;10.73;;;12.10;99.90;;;;;;5052887;28;20513;-75
2021/05/08 10:22:59;;;;;;;13.52;11.20;;;12.10;99.90;;;;;;5053965;28;20387;-74
2021/05/08 10:25:28;;;;;;;11.75;10.02;;;12.10;99.90;;;;;;5054206;28;20510;-73
2021/05/08 10:27:55;;;;;;;12.05;9.88;;;12.20;99.90;;;;;;5054176;28;20470;-76
2021/05/08 10:30:35;;;;;;;11.50;9.75;;;12.30;99.90;;;;;;5054251;28;20108;-74
2021/05/08 10:33:13;;;;;;;14.02;10.10;;;12.20;99.90;;;;;;5053671;28;20025;-83
2021/05/08 10:35:40;;;;;;;10.45;9.35;;;12.20;99.90;;;;;;5052238;28;20072;-78
2021/05/08 10:38:33;;;;;;;11.43;9.20;;;12.10;99.90;;;;;;5052691;28;20075;-79
2021/05/08 10:41:05;;;;;;;12.88;7.63;;;12.10;99.90;;;;;;5053659;28;20107;-80
2021/05/08 10:43:55;;;;;;;8.98;7.45;;;12.00;99.90;;;;;;5036054;28;20048;-86
2021/05/08 10:46:23;;;;;;;7.53;6.82;;;12.10;99.90;;;;;;5052717;28;20422;-86
2021/05/08 10:49:17;;;;;;;7.78;6.40;;;12.20;99.90;;;;;;5050657;28;20471;-80
2021/05/08 10:51:59;;;;;;;6.90;6.20;;;12.30;99.90;;;;;;5050988;28;20086;-80
2021/05/08 10:54:42;;;;;;;4.38;3.97;;;12.30;99.90;;;;;;5050366;28;20029;-77
2021/05/08 10:57:15;;;;;;;4.40;3.47;;;12.20;99.90;;;;;;5053080;28;20028;-81
2021/05/08 10:59:59;;;;;;;5.15;3.75;;;12.00;99.90;;;;;;5052251;28;20045;-83
2021/05/08 11:02:41;;;;;;;3.80;3.40;;;11.80;99.70;;;;;;5050399;28;20025;-85
2021/05/08 11:05:27;;;;;;;4.05;3.63;;;11.80;99.90;;;;;;5051759;28;20029;-82
2021/05/08 11:07:53;;;;;;;6.35;4.07;;;11.80;99.90;;;;;;5050119;28;20021;-82
2021/05/08 11:10:34;;;;;;;6.75;5.03;;;11.70;99.90;;;;;;5056508;28;20025;-79
2021/05/08 11:13:14;;;;;;;6.28;4.63;;;11.70;99.90;;;;;;5054692;28;20033;-78
2021/05/08 11:15:55;;;;;;;5.40;4.18;;;11.80;99.90;;;;;;5054127;28;20035;-80
2021/05/08 11:18:33;;;;;;;4.28;3.88;;;11.80;99.90;;;;;;5050981;28;20017;-79
2021/05/08 11:21:00;;;;;;;4.03;3.67;;;11.80;99.90;;;;;;5055166;28;20021;-79
2021/05/08 11:23:39;;;;;;;4.70;4.22;;;11.90;99.90;;;;;;5052830;28;20147;-84
2021/05/08 11:26:28;;;;;;;18.02;12.05;;;12.00;99.90;;;;;;5053014;28;20033;-79
2021/05/08 11:29:03;;;;;;;8.85;7.10;;;12.10;99.90;;;;;;5054789;28;20031;-81
2021/05/08 11:31:31;;;;;;;9.93;7.88;;;12.30;99.90;;;;;;5054049;28;20033;-84
2021/05/08 11:34:18;;;;;;;21.48;10.88;;;12.40;99.90;;;;;;5053585;28;20031;-80
2021/05/08 11:36:51;;;;;;;45.90;21.67;;;12.50;99.90;;;;;;5053344;28;20049;-79
2021/05/08 11:39:28;;;;;;;11.93;7.55;;;12.70;99.90;;;;;;5054917;28;20057;-78
2021/05/08 11:42:10;;;;;;;3.10;2.85;;;12.80;97.20;;;;;;5053769;28;20025;-79
2021/05/08 11:44:38;;;;;;;3.33;3.03;;;12.80;99.40;;;;;;5054242;28;20025;-78
2021/05/08 11:47:36;;;;;;;3.25;2.95;;;12.80;99.10;;;;;;5038913;28;20116;-78
2021/05/08 11:50:06;;;;;;;3.20;2.97;;;12.70;99.50;;;;;;5056127;28;20032;-78
2021/05/08 11:52:32;;;;;;;3.10;2.90;;;12.70;99.60;;;;;;5055367;28;20032;-77
2021/05/08 11:54:58;;;;;;;2.88;2.67;;;12.70;99.70;;;;;;5055116;28;20036;-77
2021/05/08 11:57:24;;;;;;;3.95;3.13;;;12.70;99.80;;;;;;5055198;28;20037;-80
2021/05/08 11:59:50;;;;;;;3.40;3.10;;;12.80;99.60;;;;;;5054958;28;20025;-78
2021/05/08 12:02:22;;;;;;;2.90;2.70;;;12.80;98.50;;;;;;5056115;28;20036;-80
2021/05/08 12:04:56;;;;;;;3.45;3.13;;;12.70;98.60;;;;;;5054943;28;20043;-78
2021/05/08 12:07:32;;;;;;;3.25;2.95;;;12.70;98.60;;;;;;5054858;28;20449;-79
2021/05/08 12:10:21;;;;;;;3.03;2.80;;;12.70;99.20;;;;;;5054604;28;20025;-78
2021/05/08 12:12:57;;;;;;;3.20;2.90;;;12.90;97.60;;;;;;5054653;28;20021;-77
2021/05/08 12:15:22;;;;;;;2.88;2.67;;;13.20;99.00;;;;;;5055291;28;20098;-77
2021/05/08 12:17:49;;;;;;;2.67;2.47;;;13.70;99.90;;;;;;5054429;28;20436;-77
2021/05/08 12:20:21;;;;;;;3.40;2.60;;;14.00;98.30;;;;;;5053309;28;20383;-77
2021/05/08 12:22:47;;;;;;;2.55;2.35;;;14.30;98.00;;;;;;5054411;28;20044;-77
2021/05/08 12:25:22;;;;;;;2.22;1.90;;;14.30;96.10;;;;;;5055602;28;20017;-77
2021/05/08 12:27:48;;;;;;;2.33;2.10;;;14.50;97.50;;;;;;5054889;28;20029;-76
2021/05/08 12:30:15;;;;;;;3.03;2.13;;;14.60;95.10;;;;;;5055549;28;20100;-77
2021/05/08 12:32:52;;;;;;;2.42;1.70;;;14.60;96.50;;;;;;5053701;28;20029;-83
2021/05/08 12:35:20;;;;;;;17.98;8.30;;;14.60;96.00;;;;;;5054618;28;20049;-80
2021/05/08 12:37:47;;;;;;;5.78;3.97;;;14.50;95.20;;;;;;5054039;28;20084;-79
2021/05/08 12:40:14;;;;;;;7.72;5.32;;;14.40;95.00;;;;;;5055488;28;20375;-82
2021/05/08 12:42:45;;;;;;;3.40;3.10;;;14.20;94.80;;;;;;5054644;28;20021;-80
2021/05/08 12:45:13;;;;;;;5.30;4.55;;;14.10;94.40;;;;;;5055403;28;20057;-77